Tiempo atmosférico en la estación meteorológica de Garrucha, Puerto, Almería (12 m.)



Fecha
DESCASC
Temp. máxima en grados centígrados (hora)
DESCASC
Temp. mínima en grados centígrados (hora)
DESCASC
Temp. media en grados centígrados
DESCASC
Racha de viento máxima en m/sg (hora)
DESCASC
Velocidad máxima media en intervalos de 10 minutos(hora)
DESCASC
Precipitaciones diarias en mm
DESCASC
Precipitaciones de 00:00 a 06:00 en mm
DESCASC
Precipitaciones de 06:00 a 12:00 en mm
DESCASC
Precipitaciones de 12:00 a 18:00 en mm
DESCASC
Precipitaciones de 18:00 a 24:00 en mm
DESCASC
23-05-2018 23.9 (14:20) 15.7 (07:00) 19.8 6.67 (17:20) 4.44 (17:20) 0 0 0 0 0
22-05-2018 21.9 (09:40) 15.8 (07:30) 18.8 11.39 (16:40) 9.72 (16:50) 0 0 0 0 0
21-05-2018 20 (20:50) 14.7 (07:30) 17.3 11.11 (15:20) 9.72 (15:20) 0 0 0 0 0
20-05-2018 21.2 (10:40) 14.7 (00:00) 18 7.22 (15:30) 6.11 (15:30) 0 0 0 0 0
19-05-2018 20.8 (10:20) 15.4 (00:00) 18.1 7.22 (15:50) 6.11 (16:10) 0 0 0 0 0
18-05-2018 20.9 (10:20) 14.5 (00:00) 17.7 5.83 (02:50) 4.72 (17:30) 0 0 0 0 0
17-05-2018 20.1 (13:20) 16.5 (00:00) 18.3 12.22 (15:40) 10.28 (16:00) 0 0 0 0 0
16-05-2018 20.4 (12:40) 13.9 (00:00) 17.1 12.22 (18:30) 10.28 (18:30) 0 0 0 0 0
15-05-2018 20 (18:00) 14.2 (00:00) 17.1 8.06 (15:20) 7.22 (15:20) 0 0 0 0 0
14-05-2018 22.6 (11:10) 13.1 (00:00) 17.9 10.56 (18:10) 8.61 (17:50) 0 0 0 0 0
13-05-2018 23.3 (00:00) 16.2 (00:00) 19.8 16.39 (01:30) 9.72 (00:20) 0 0 0 0 0
12-05-2018 26.2 (19:30) 15.7 (00:00) 21 13.33 (15:10) 10.83 (14:40) 0 0 0 0 0
11-05-2018 20.1 (11:00) 16 (06:30) 18.1 7.22 (17:00) 6.39 (20:40) 0 0 0 0 0
10-05-2018 21.4 (15:40) 18.3 (00:00) 19.8 9.17 (17:50) 6.67 (17:50) 0 0 0 0 0
09-05-2018 23 (17:50) 16.5 (00:00) 19.8 14.17 (15:10) 12.5 (15:20) 0 0 0 0 0
08-05-2018 20.3 (10:40) 15.3 (00:00) 17.8 10.83 (15:10) 9.17 (15:10) 0 0 0 0 0
07-05-2018 20.7 (10:50) 14.7 (00:00) 17.7 6.39 (07:20) 5.28 (23:59) 0 0 0 0 0
06-05-2018 21.4 (10:30) 14.5 (00:00) 17.9 5.56 (15:20) 4.44 (15:20) 0 0 0 0 0
05-05-2018 20.3 (10:40) 15.5 (00:00) 17.9 8.89 (13:00) 7.78 (13:00) 0 0 0 0 0
04-05-2018 20.6 (11:30) 15.9 (00:00) 18.3 6.94 (16:20) 6.11 (16:20) 0.2 0.2 0 0 0
03-05-2018 21.4 (21:00) 16.2 (00:00) 18.8 13.89 (15:50) 11.67 (15:50) 0 0 0 0 0
02-05-2018 18.8 (19:30) 10.2 (00:00) 14.5 16.94 (17:10) 13.61 (16:30) 0 0 0 0 0
01-05-2018 -- (--) -- (--) -- 16.11 (15:20) 11.94 (16:00) 0 0 0 0 0
30-04-2018 18.8 (19:50) 11.9 (00:00) 15.3 16.67 (21:00) 11.39 (16:50) 0 0 0 0 0
29-04-2018 21.9 (17:30) 14.9 (00:00) 18.4 14.72 (00:50) 10 (01:20) 0 0 0 0 0
28-04-2018 27.2 (17:40) 16.3 (00:00) 21.8 17.5 (18:20) 12.78 (18:20) 0 0 0 0 0
27-04-2018 23 (20:30) 14.4 (00:00) 18.7 10.28 (13:50) 9.44 (13:50) 0 0 0 0 0
26-04-2018 19.1 (17:20) 16.1 (00:00) 17.6 6.39 (10:40) 5.83 (13:50) 2.8 0 2.6 0.2 0
25-04-2018 20.4 (02:40) 15.5 (00:00) 17.9 12.78 (06:40) 8.61 (00:40) 17.6 1.6 11.6 4.4 0
24-04-2018 22.4 (00:50) 18.4 (00:00) 20.4 15 (02:30) 11.11 (17:10) 0 0 0 0 0

Gráficas

Temp. máximas Temp. mínimas Temp. medias Precipitaciones Rachas de viento máximas Velocidades máximas media en intervalos de 10 minutos

Datos horarios

Fecha y hora oficial Temperatura (ºC) Velocidad del viento (km/h) Dirección del viento Racha (km/h) Dirección de racha Precipitación (mm) Presión (hPa) Tendencia (hPa) Humedad (%)
2018-05-23 23:00:00 21.2 6 Norte 16 Nordeste 0 -- -- 72
2018-05-23 22:00:00 21.6 5 Nordeste 17 Norte 0 -- -- 71
2018-05-23 21:00:00 21.7 9 Norte 17 Nordeste 0 -- -- 62
2018-05-23 20:00:00 22 7 Norte 15 Nordeste 0 -- -- 59
2018-05-23 19:00:00 22.7 5 Nordeste 12 Nordeste 0 -- -- 64
2018-05-23 18:00:00 22.9 10 Nordeste 24 Este 0 -- -- 67
2018-05-23 17:00:00 23.2 12 Nordeste 18 Nordeste 0 -- -- 64
2018-05-23 16:00:00 23.8 9 Nordeste 14 Nordeste 0 -- -- 64
2018-05-23 15:00:00 23.5 6 Nordeste 10 Este 0 -- -- 62
2018-05-23 14:00:00 22.8 3 Este 8 Nordeste 0 -- -- 61
2018-05-23 13:00:00 21.3 5 Este 9 Nordeste 0 -- -- 72
2018-05-23 12:00:00 21.9 5 Nordeste 10 Nordeste 0 -- -- 72
2018-05-23 11:00:00 21.3 3 Este 9 Nordeste 0 -- -- 77
2018-05-23 10:00:00 21.6 7 Nordeste 14 Noroeste 0 -- -- 77
2018-05-23 09:00:00 18.2 7 Noroeste 17 Noroeste 0 -- -- 74
2018-05-23 08:00:00 16.5 13 Oeste 19 Oeste 0 -- -- 80
2018-05-23 07:00:00 15.7 13 Oeste 15 Oeste 0 -- -- 87
2018-05-23 06:00:00 16.4 9 Oeste 15 Oeste 0 -- -- 88
2018-05-23 05:00:00 16.7 10 Oeste 14 Oeste 0 -- -- 91
2018-05-23 04:00:00 17 8 Noroeste 12 Oeste 0 -- -- 93
2018-05-23 03:00:00 17.2 5 Noroeste 9 Noroeste 0 -- -- 93
2018-05-23 02:00:00 18.2 0 Calma 5 Sudoeste 0 -- -- 93
2018-05-23 01:00:00 18.6 2 Sudeste 9 Nordeste 0 -- -- 93
2018-05-23 00:00:00 18.9 5 Nordeste 12 Nordeste 0 -- -- 94
2018-05-22 23:00:00 18.9 9 Nordeste 18 Este 0 -- -- 95
2018-05-22 22:00:00 19.1 12 Sudeste 29 Sudeste 0 -- -- 94
2018-05-22 21:00:00 19.4 27 Sudeste 40 Sur 0 -- -- 90
2018-05-22 20:00:00 19.7 29 Sudeste 40 Sur 0 -- -- 85
2018-05-22 19:00:00 20 32 Sudeste 36 Sudeste 0 -- -- 81
2018-05-22 18:00:00 20 28 Sur 37 Sur 0 -- -- 82
2018-05-22 17:00:00 19.8 33 Sur 41 Sur 0 -- -- 83
2018-05-22 16:00:00 19.7 31 Sudeste 38 Sudeste 0 -- -- 86
2018-05-22 15:00:00 19.6 28 Sudeste 33 Sudeste 0 -- -- 86
2018-05-22 14:00:00 19.5 26 Sudeste 31 Sur 0 -- -- 88
2018-05-22 13:00:00 19.4 23 Sudeste 25 Sudeste 0 -- -- 87
2018-05-22 12:00:00 19.4 14 Sudeste 16 Sudeste 0 -- -- 82
2018-05-22 11:00:00 19.7 10 Sudeste 13 Sudeste 0 -- -- 75
2018-05-22 10:00:00 20.3 4 Sudeste 7 Oeste 0 -- -- 63
2018-05-22 09:00:00 18.5 5 Oeste 8 Oeste 0 -- -- 69
2018-05-22 08:00:00 16.4 4 Noroeste 8 Noroeste 0 -- -- 76
2018-05-22 07:00:00 16.6 5 Oeste 16 Sudoeste 0 -- -- 75
2018-05-22 06:00:00 17.1 9 Sudoeste 14 Sudoeste 0 -- -- 76
2018-05-22 05:00:00 16.6 3 Sudoeste 8 Noroeste 0 -- -- 82
2018-05-22 04:00:00 16.5 8 Noroeste 14 Noroeste 0 -- -- 83
2018-05-22 03:00:00 17.7 7 Sudoeste 10 Sudoeste 0 -- -- 80
2018-05-22 02:00:00 17.9 0 Calma 9 Sudoeste 0 -- -- 81
2018-05-22 01:00:00 18.6 2 Sudoeste 5 Noroeste 0 -- -- 83
2018-05-22 00:00:00 18.6 3 Noroeste 9 Noroeste 0 -- -- 83
2018-05-21 23:00:00 18.8 6 Norte 19 Norte 0 -- -- 89
2018-05-21 22:00:00 19.1 13 Norte 21 Norte 0 -- -- 88
2018-05-21 21:00:00 19.8 5 Sudoeste 28 Sur 0 -- -- 84
2018-05-21 20:00:00 19.5 27 Sur 35 Sur 0 -- -- 86
2018-05-21 19:00:00 19.6 25 Sudeste 29 Sudeste 0 -- -- 84
2018-05-21 18:00:00 19.2 22 Sudeste 27 Sur 0 -- -- 85
2018-05-21 17:00:00 18.8 27 Sudeste 35 Sudeste 0 -- -- 88
2018-05-21 16:00:00 19.1 32 Sudeste 40 Sudeste 0 -- -- 85
2018-05-21 15:00:00 18.9 33 Sudeste 37 Sudeste 0 -- -- 84
2018-05-21 14:00:00 19 26 Sudeste 28 Sudeste 0 -- -- 85
2018-05-21 13:00:00 18.7 23 Sudeste 25 Sudeste 0 -- -- 83
2018-05-21 12:00:00 18.7 18 Sudeste 22 Sudeste 0 -- -- 79
2018-05-21 11:00:00 19.2 11 Sudeste 13 Sudeste 0 -- -- 75
2018-05-21 10:00:00 19.2 6 Este 10 Noroeste 0 -- -- 69
2018-05-21 09:00:00 17.3 9 Oeste 12 Noroeste 0 -- -- 71
2018-05-21 08:00:00 15.5 9 Oeste 16 Oeste 0 -- -- 73
2018-05-21 07:00:00 15.3 5 Oeste 9 Oeste 0 -- -- 75
2018-05-21 06:00:00 15.1 0 Calma 10 Oeste 0 -- -- 75
2018-05-21 05:00:00 15.3 6 Oeste 15 Sudoeste 0 -- -- 76
2018-05-21 04:00:00 15.9 3 Oeste 6 Noroeste 0 -- -- 77
2018-05-21 03:00:00 16.7 6 Sudoeste 11 Oeste 0 -- -- 76
2018-05-21 02:00:00 16.8 10 Oeste 13 Oeste 0 -- -- 75
2018-05-21 01:00:00 16.8 3 Oeste 6 Noroeste 0 -- -- 83
2018-05-21 00:00:00 18 3 Oeste 7 Sudoeste 0 -- -- 83
2018-05-20 23:00:00 18.3 0 Calma 5 Nordeste 0 -- -- 83
2018-05-20 22:00:00 18.5 4 Este 9 Sudeste 0 -- -- 81
2018-05-20 21:00:00 18.6 9 Sudeste 14 Sudeste 0 -- -- 80
2018-05-20 20:00:00 18.8 13 Sudeste 18 Sudeste 0 -- -- 78
2018-05-20 19:00:00 19.4 15 Sudeste 23 Sudeste 0 -- -- 78
2018-05-20 18:00:00 19 18 Sudeste 22 Sudeste 0 -- -- 80
2018-05-20 17:00:00 18.9 20 Sudeste 26 Sudeste 0 -- -- 79
2018-05-20 16:00:00 18.8 21 Sudeste 26 Sudeste 0 -- -- 81
2018-05-20 15:00:00 19.1 20 Sudeste 23 Sudeste 0 -- -- 79
2018-05-20 14:00:00 18.8 18 Sudeste 21 Sudeste 0 -- -- 76
2018-05-20 13:00:00 19.1 15 Sudeste 18 Sudeste 0 -- -- 74
2018-05-20 12:00:00 19.6 12 Este 14 Sudeste 0 -- -- 73
2018-05-20 11:00:00 19.7 4 Este 10 Nordeste 0 -- -- 75
2018-05-20 10:00:00 19.6 4 Nordeste 10 Noroeste 0 -- -- 73
2018-05-20 09:00:00 17 7 Oeste 9 Oeste 0 -- -- 75
2018-05-20 08:00:00 16.4 4 Sudoeste 10 Oeste 0 -- -- 77
2018-05-20 07:00:00 15.2 6 Oeste 11 Oeste 0 -- -- 82
2018-05-20 06:00:00 15.6 7 Oeste 13 Oeste 0 -- -- 85
2018-05-20 05:00:00 14.9 8 Oeste 12 Noroeste 0 -- -- 87
2018-05-20 04:00:00 15.8 9 Oeste 12 Oeste 0 -- -- 86
2018-05-20 03:00:00 16.4 8 Oeste 12 Oeste 0 -- -- 90
2018-05-20 02:00:00 16.7 6 Oeste 9 Oeste 0 -- -- 89
2018-05-20 01:00:00 17.7 2 Sudoeste 8 Sudeste 0 -- -- 88
2018-05-20 00:00:00 18 5 Sudeste 12 Este 0 -- -- 88
2018-05-19 23:00:00 18.2 10 Este 13 Este 0 -- -- 87
2018-05-19 22:00:00 18.3 8 Nordeste 10 Nordeste 0 -- -- 85
2018-05-19 21:00:00 18.9 3 Este 8 Sudeste 0 -- -- 82
2018-05-19 20:00:00 19.2 8 Sudeste 17 Sudeste 0 -- -- 83
2018-05-19 19:00:00 19 15 Sudeste 23 Este 0 -- -- 82
2018-05-19 18:00:00 19.3 19 Sudeste 24 Sudeste 0 -- -- 81
2018-05-19 17:00:00 19.5 22 Sudeste 25 Este 0 -- -- 82
2018-05-19 16:00:00 19.2 22 Sudeste 26 Sudeste 0 -- -- 81
2018-05-19 15:00:00 19.5 20 Este 24 Este 0 -- -- 81
2018-05-19 14:00:00 19.5 14 Sudeste 17 Sudeste 0 -- -- 81
2018-05-19 13:00:00 19.5 13 Este 17 Este 0 -- -- 77
2018-05-19 12:00:00 19.7 11 Este 14 Este 0 -- -- 75
2018-05-19 11:00:00 19.9 6 Este 8 Nordeste 0 -- -- 74
2018-05-19 10:00:00 19.9 2 Nordeste 7 Norte 0 -- -- 67
2018-05-19 09:00:00 17.9 5 Noroeste 13 Oeste 0 -- -- 64
2018-05-19 08:00:00 16.2 8 Noroeste 13 Oeste 0 -- -- 66
2018-05-19 07:00:00 15.6 8 Noroeste 13 Oeste 0 -- -- 70
2018-05-19 06:00:00 15.5 9 Oeste 12 Oeste 0 -- -- 70
2018-05-19 05:00:00 15.4 7 Oeste 10 Oeste 0 -- -- 73
2018-05-19 04:00:00 15.9 6 Oeste 10 Oeste 0 -- -- 74
2018-05-19 03:00:00 16.1 10 Oeste 12 Oeste 0 -- -- 74
2018-05-19 02:00:00 16.5 7 Oeste 12 Oeste 0 -- -- 77
2018-05-19 01:00:00 17.6 7 Oeste 10 Oeste 0 -- -- 81
2018-05-19 00:00:00 17.7 4 Oeste 8 Noroeste 0 -- -- 82
2018-05-18 23:00:00 18.3 4 Norte 5 Norte 0 -- -- 81
2018-05-18 22:00:00 18.6 3 Nordeste 9 Este 0 -- -- 79
2018-05-18 21:00:00 18.8 9 Este 14 Este 0 -- -- 77
2018-05-18 20:00:00 19.6 13 Sudeste 15 Sudeste 0 -- -- 73
2018-05-18 19:00:00 19.3 14 Sudeste 16 Sudeste 0 -- -- 73
2018-05-18 18:00:00 19.3 14 Sudeste 20 Sudeste 0 -- -- 76
2018-05-18 17:00:00 19.1 16 Sudeste 19 Sudeste 0 -- -- 77
2018-05-18 16:00:00 19.1 15 Sudeste 18 Sudeste 0 -- -- 77
2018-05-18 15:00:00 18.9 14 Sudeste 17 Sudeste 0 -- -- 78
2018-05-18 14:00:00 19.2 12 Sudeste 15 Sudeste 0 -- -- 76
2018-05-18 13:00:00 19.6 12 Este 16 Este 0 -- -- 75
2018-05-18 12:00:00 20.2 11 Este 15 Nordeste 0 -- -- 70
2018-05-18 11:00:00 19.9 6 Este 9 Nordeste 0 -- -- 71
2018-05-18 10:00:00 20 5 Nordeste 10 Noroeste 0 -- -- 64
2018-05-18 09:00:00 16.7 10 Noroeste 16 Oeste 0 -- -- 69
2018-05-18 08:00:00 15.2 6 Oeste 15 Oeste 0 -- -- 74
2018-05-18 07:00:00 14.6 12 Noroeste 20 Oeste 0 -- -- 77
2018-05-18 06:00:00 14.9 13 Noroeste 16 Oeste 0 -- -- 80
2018-05-18 05:00:00 15.7 12 Oeste 17 Oeste 0 -- -- 79
2018-05-18 04:00:00 15.6 10 Noroeste 16 Oeste 0 -- -- 82
2018-05-18 03:00:00 15.6 14 Oeste 21 Oeste 0 -- -- 87
2018-05-18 02:00:00 15.2 13 Oeste 18 Oeste 0 -- -- 86
2018-05-18 01:00:00 16.3 6 Oeste 9 Oeste 0 -- -- 88
2018-05-18 00:00:00 17.6 6 Norte 13 Nordeste 0 -- -- 87
2018-05-17 23:00:00 17.7 9 Nordeste 13 Nordeste 0 -- -- 85
2018-05-17 22:00:00 17.7 5 Norte 12 Nordeste 0 -- -- 82
2018-05-17 21:00:00 18.5 8 Nordeste 16 Este 0 -- -- 79
2018-05-17 20:00:00 19.8 12 Este 18 Nordeste 0 -- -- 75
2018-05-17 19:00:00 19.8 14 Nordeste 24 Este 0 -- -- 74
2018-05-17 18:00:00 19.2 20 Este 36 Este 0 -- -- 76
2018-05-17 17:00:00 19 34 Este 42 Este 0 -- -- 75
2018-05-17 16:00:00 19.4 37 Nordeste 44 Nordeste 0 -- -- 78
2018-05-17 15:00:00 19.5 26 Nordeste 35 Nordeste 0 -- -- 75
2018-05-17 14:00:00 20 26 Nordeste 35 Nordeste 0 -- -- 73
2018-05-17 13:00:00 19.5 24 Nordeste 33 Nordeste 0 -- -- 73
2018-05-17 12:00:00 19.3 19 Nordeste 29 Nordeste 0 -- -- 74
2018-05-17 11:00:00 19 20 Nordeste 33 Nordeste 0 -- -- 71
2018-05-17 10:00:00 19 14 Norte 25 Nordeste 0 -- -- 67
2018-05-17 09:00:00 18.3 14 Norte 25 Norte 0 -- -- 55
2018-05-17 08:00:00 17.2 11 Norte 24 Norte 0 -- -- 57
2018-05-17 07:00:00 16.9 12 Noroeste 26 Noroeste 0 -- -- 56
2018-05-17 06:00:00 16.6 9 Noroeste 18 Norte 0 -- -- 55
2018-05-17 05:00:00 17.1 12 Noroeste 19 Noroeste 0 -- -- 53
2018-05-17 04:00:00 17.1 10 Noroeste 22 Noroeste 0 -- -- 52
2018-05-17 03:00:00 17.2 10 Noroeste 19 Norte 0 -- -- 52
2018-05-17 02:00:00 18 10 Noroeste 23 Norte 0 -- -- 50
2018-05-17 01:00:00 17.9 13 Noroeste 22 Norte 0 -- -- 49
2018-05-17 00:00:00 18.2 9 Noroeste 17 Norte 0 -- -- 48
2018-05-16 23:00:00 18.9 13 Norte 33 Norte 0 -- -- 57
2018-05-16 22:00:00 19 16 Nordeste 32 Nordeste 0 -- -- 72
2018-05-16 21:00:00 19.2 24 Nordeste 38 Nordeste 0 -- -- 68
2018-05-16 20:00:00 19.9 31 Nordeste 38 Nordeste 0 -- -- 61
2018-05-16 19:00:00 20.2 33 Nordeste 44 Nordeste 0 -- -- 58
2018-05-16 18:00:00 20 30 Nordeste 43 Este 0 -- -- 63
2018-05-16 17:00:00 19.7 35 Este 42 Este 0 -- -- 68
2018-05-16 16:00:00 20.1 35 Este 41 Este 0 -- -- 66
2018-05-16 15:00:00 20 31 Nordeste 39 Nordeste 0 -- -- 62
2018-05-16 14:00:00 20.2 27 Nordeste 33 Nordeste 0 -- -- 64
2018-05-16 13:00:00 20.4 17 Nordeste 26 Nordeste 0 -- -- 64
2018-05-16 12:00:00 19.9 14 Nordeste 20 Nordeste 0 -- -- 60
2018-05-16 11:00:00 19.1 12 Nordeste 21 Nordeste 0 -- -- 65
2018-05-16 10:00:00 19.1 9 Nordeste 17 Nordeste 0 -- -- 65
2018-05-16 09:00:00 16.1 9 Noroeste 15 Noroeste 0 -- -- 72
2018-05-16 08:00:00 14.3 13 Noroeste 16 Oeste 0 -- -- 76
2018-05-16 07:00:00 14 12 Oeste 19 Noroeste 0 -- -- 80
2018-05-16 06:00:00 14.4 12 Noroeste 15 Noroeste 0 -- -- 80
2018-05-16 05:00:00 14.6 10 Noroeste 14 Oeste 0 -- -- 80
2018-05-16 04:00:00 14.6 10 Noroeste 14 Oeste 0 -- -- 82
2018-05-16 03:00:00 15.1 11 Oeste 15 Oeste 0 -- -- 80
2018-05-16 02:00:00 15.9 9 Oeste 11 Oeste 0 -- -- 79
2018-05-16 01:00:00 16.1 7 Noroeste 12 Oeste 0 -- -- 79
2018-05-16 00:00:00 17 4 Noroeste 11 Norte 0 -- -- 77
2018-05-15 23:00:00 17.8 8 Nordeste 11 Nordeste 0 -- -- 78
2018-05-15 22:00:00 18 5 Nordeste 10 Nordeste 0 -- -- 77
2018-05-15 21:00:00 18.6 8 Nordeste 13 Nordeste 0 -- -- 74
2018-05-15 20:00:00 19.8 10 Nordeste 19 Nordeste 0 -- -- 73
2018-05-15 19:00:00 19.7 15 Nordeste 21 Nordeste 0 -- -- 74
2018-05-15 18:00:00 20 16 Nordeste 22 Este 0 -- -- 72
2018-05-15 17:00:00 19.7 19 Nordeste 26 Este 0 -- -- 74
2018-05-15 16:00:00 19.2 23 Este 29 Este 0 -- -- 76
2018-05-15 15:00:00 19 23 Este 28 Este 0 -- -- 76
2018-05-15 14:00:00 18.6 17 Este 22 Este 0 -- -- 75
2018-05-15 13:00:00 19.9 16 Nordeste 20 Nordeste 0 -- -- 73
2018-05-15 12:00:00 19.7 15 Nordeste 19 Nordeste 0 -- -- 73
2018-05-15 11:00:00 19.1 14 Nordeste 24 Nordeste 0 -- -- 74
2018-05-15 10:00:00 18.7 19 Nordeste 26 Nordeste 0 -- -- 74
2018-05-15 09:00:00 17.4 5 Noroeste 10 Noroeste 0 -- -- 54
2018-05-15 08:00:00 15.2 6 Noroeste 10 Oeste 0 -- -- 56
2018-05-15 07:00:00 15.4 4 Noroeste 10 Norte 0 -- -- 65
2018-05-15 06:00:00 14.5 6 Norte 15 Noroeste 0 -- -- 54
2018-05-15 05:00:00 14.8 7 Noroeste 21 Oeste 0 -- -- 51
2018-05-15 04:00:00 14.6 10 Oeste 17 Oeste 0 -- -- 51
2018-05-15 03:00:00 14.7 7 Oeste 13 Noroeste 0 -- -- 58
2018-05-15 02:00:00 15.9 9 Oeste 12 Oeste 0 -- -- 60
2018-05-15 01:00:00 16.9 7 Norte 10 Norte 0 -- -- 72
2018-05-15 00:00:00 17.4 7 Noroeste 10 Noroeste 0 -- -- 55
2018-05-14 23:00:00 17.4 8 Noroeste 21 Sur 0 -- -- 56
2018-05-14 22:00:00 18.3 17 Sur 27 Sur 0 -- -- 59
2018-05-14 21:00:00 17.3 22 Sur 32 Sur 0 -- -- 71
2018-05-14 20:00:00 18.2 25 Sur 36 Sur 0 -- -- 75
2018-05-14 19:00:00 18.8 31 Sudeste 38 Sur 0 -- -- 55
2018-05-14 18:00:00 18.2 31 Sur 37 Sur 0 -- -- 61
2018-05-14 17:00:00 18.2 29 Sur 35 Sur 0 -- -- 68
2018-05-14 16:00:00 18.2 28 Sur 32 Sur 0 -- -- 64
2018-05-14 15:00:00 17.8 27 Sudeste 36 Sudeste 0 -- -- 67
2018-05-14 14:00:00 17.4 26 Sur 34 Sur 0 -- -- 74
2018-05-14 13:00:00 17.5 26 Sur 30 Sur 0 -- -- 79
2018-05-14 12:00:00 17.7 22 Sur 25 Sur 0 -- -- 74
2018-05-14 11:00:00 21.9 5 Nordeste 13 Nordeste 0 -- -- 42
2018-05-14 10:00:00 19.1 9 Noroeste 15 Noroeste 0 -- -- 39
2018-05-14 09:00:00 15.7 12 Noroeste 19 Oeste 0 -- -- 48
2018-05-14 08:00:00 13.1 16 Oeste 22 Oeste 0 -- -- 56
2018-05-14 07:00:00 13.5 12 Oeste 15 Oeste 0 -- -- 55
2018-05-14 06:00:00 14.2 6 Oeste 13 Oeste 0 -- -- 62
2018-05-14 05:00:00 14.3 9 Oeste 14 Oeste 0 -- -- 64
2018-05-14 04:00:00 13.9 5 Oeste 16 Oeste 0 -- -- 73
2018-05-14 03:00:00 14.5 4 Noroeste 15 Oeste 0 -- -- 77
2018-05-14 02:00:00 15 11 Noroeste 15 Noroeste 0 -- -- 88
2018-05-14 01:00:00 15.3 12 Noroeste 15 Oeste 0 -- -- 86
2018-05-11 20:00:00 -- -- -- -- -- -- -- -- --
2018-05-11 19:00:00 -- -- -- -- -- -- -- -- --
2018-05-11 18:00:00 18.8 22 Sudeste 25 Sudeste 0 -- -- 91
2018-05-11 17:00:00 18.9 23 Sudeste 26 Sudeste 0 -- -- 88
2018-05-11 16:00:00 19 20 Sudeste 23 Este 0 -- -- 87
2018-05-11 15:00:00 19.4 20 Este 23 Este 0 -- -- 82
2018-05-11 14:00:00 19.6 19 Este 24 Este 0 -- -- 82
2018-05-11 13:00:00 19.6 13 Este 15 Este 0 -- -- 77
2018-05-11 12:00:00 19.9 11 Este 13 Este 0 -- -- 76
2018-05-11 11:00:00 20.1 6 Nordeste 10 Nordeste 0 -- -- 77
2018-05-11 10:00:00 18.8 6 Norte 15 Noroeste 0 -- -- 80
2018-05-11 09:00:00 17.3 12 Noroeste 18 Noroeste 0 -- -- 86
2018-05-11 08:00:00 16.2 11 Noroeste 14 Noroeste 0 -- -- 89
2018-05-11 07:00:00 16.1 11 Noroeste 16 Noroeste 0 -- -- 89
2018-05-11 06:00:00 16.4 9 Oeste 13 Oeste 0 -- -- 88
2018-05-11 05:00:00 16.5 6 Noroeste 10 Noroeste 0 -- -- 88
2018-05-11 04:00:00 16.6 8 Noroeste 11 Noroeste 0 -- -- 86
2018-05-11 03:00:00 17 3 Noroeste 9 Oeste 0 -- -- 89
2018-05-11 02:00:00 18.2 3 Oeste 6 Oeste 0 -- -- 87
2018-05-11 01:00:00 18.2 6 Oeste 8 Oeste 0 -- -- 87
2018-05-11 00:00:00 18.3 3 Norte 10 Norte 0 -- -- 91
2018-05-10 23:00:00 18.6 9 Nordeste 19 Nordeste 0 -- -- 90
2018-05-10 22:00:00 18.8 15 Nordeste 27 Nordeste 0 -- -- 85
2018-05-10 21:00:00 19.6 13 Nordeste 20 Norte 0 -- -- 78
2018-05-10 20:00:00 19.4 4 Oeste 22 Nordeste 0 -- -- 75
2018-05-10 19:00:00 19.1 13 Norte 27 Nordeste 0 -- -- 78
2018-05-10 18:00:00 19.3 21 Nordeste 33 Nordeste 0 -- -- 90
2018-05-10 17:00:00 20 17 Nordeste 26 Nordeste 0 -- -- 88
2018-05-10 16:00:00 20.3 19 Nordeste 26 Nordeste 0 -- -- 85
2018-05-10 15:00:00 19.4 15 Sudeste 20 Sudeste 0 -- -- 90
2018-05-10 14:00:00 19.3 16 Sudeste 20 Sudeste 0 -- -- 90
2018-05-10 13:00:00 19.4 12 Sudeste 15 Sur 0 -- -- 87
2018-05-10 12:00:00 20 10 Sudeste 15 Nordeste 0 -- -- 80
2018-05-10 11:00:00 20.8 5 Sudeste 11 Nordeste 0 -- -- 78
2018-05-10 10:00:00 20.2 6 Sudeste 14 Nordeste 0 -- -- 79
2018-05-10 09:00:00 20.5 6 Nordeste 14 Norte 0 -- -- 77
2018-05-10 08:00:00 19.6 5 Norte 13 Noroeste 0 -- -- 75
2018-05-10 07:00:00 18.6 4 Sur 20 Sudeste 0 -- -- 82
2018-05-10 06:00:00 19.3 3 Noroeste 14 Sudoeste 0 -- -- 73
2018-05-10 05:00:00 19.9 6 Oeste 16 Oeste 0 -- -- 72
2018-05-10 04:00:00 20 9 Oeste 15 Oeste 0 -- -- 74
2018-05-10 03:00:00 19 5 Sudoeste 14 Sudoeste 0 -- -- 81
2018-05-10 02:00:00 19.6 8 Oeste 17 Sudoeste 0 -- -- 80
2018-05-10 01:00:00 18.8 8 Sudoeste 16 Sudoeste 0 -- -- 87
2018-05-10 00:00:00 18.9 6 Oeste 13 Sudoeste 0 -- -- 89
2018-05-09 23:00:00 18.7 3 Nordeste 22 Nordeste 0 -- -- 90
2018-05-09 22:00:00 20.2 13 Norte 28 Nordeste 0 -- -- 79
2018-05-09 21:00:00 21.1 8 Noroeste 12 Noroeste 0 -- -- 79
2018-05-09 20:00:00 19.5 4 Sur 21 Nordeste 0 -- -- 85
2018-05-09 19:00:00 19.5 9 Nordeste 27 Nordeste 0 -- -- 84
2018-05-09 18:00:00 22.8 6 Norte 39 Sur 0 -- -- 65
2018-05-09 17:00:00 19.2 28 Sur 45 Sur 0 -- -- 85
2018-05-09 16:00:00 19.5 41 Sur 51 Sur 0 -- -- 79
2018-05-09 15:00:00 19 36 Sur 45 Sur 0 -- -- 89
2018-05-09 14:00:00 18.3 32 Sudeste 36 Sudeste 0 -- -- 93
2018-05-09 13:00:00 18.3 26 Sudeste 29 Sudeste 0 -- -- 96
2018-05-09 12:00:00 18.5 18 Sudeste 20 Sudeste 0 -- -- 94
2018-05-09 11:00:00 18.3 14 Sur 15 Sur 0 -- -- 92
2018-05-09 10:00:00 19.7 6 Este 8 Este 0 -- -- 83
2018-05-09 09:00:00 19.5 3 Noroeste 21 Oeste 0 -- -- 78
2018-05-09 08:00:00 17 14 Oeste 18 Oeste 0 -- -- 90
2018-05-09 07:00:00 17.3 6 Oeste 10 Oeste 0 -- -- 95
2018-05-09 06:00:00 17.5 5 Noroeste 6 Noroeste 0 -- -- 95
2018-05-09 05:00:00 17.8 3 Nordeste 6 Nordeste 0 -- -- 94
2018-05-09 04:00:00 17.7 3 Noroeste 9 Sur 0 -- -- 93
2018-05-09 03:00:00 17.9 8 Sur 15 Sur 0 -- -- 93
2018-05-09 02:00:00 18.2 6 Sudeste 9 Este 0 -- -- 90
2018-05-09 01:00:00 18.9 4 Este 8 Sudoeste 0 -- -- 84
2018-05-09 00:00:00 19.9 7 Noroeste 15 Noroeste 0 -- -- 76
2018-05-08 23:00:00 19.7 12 Oeste 22 Sudoeste 0 -- -- 77
2018-05-08 22:00:00 19.3 18 Sudoeste 23 Sudoeste 0 -- -- 84
2018-05-08 21:00:00 18.1 6 Noroeste 21 Nordeste 0 -- -- 92
2018-05-08 20:00:00 18.4 13 Nordeste 27 Nordeste 0 -- -- 91
2018-05-08 19:00:00 18.8 20 Nordeste 32 Sur 0 -- -- 88
2018-05-08 18:00:00 18.6 27 Sur 35 Sudeste 0 -- -- 89
2018-05-08 17:00:00 18.4 27 Sur 37 Sudeste 0 -- -- 90
2018-05-08 16:00:00 18.5 29 Sur 39 Sur 0 -- -- 90
2018-05-08 15:00:00 18.4 29 Sur 38 Sur 0 -- -- 88
2018-05-08 14:00:00 19 17 Sudeste 20 Sudeste 0 -- -- 87
2018-05-08 13:00:00 18.6 13 Sudeste 17 Este 0 -- -- 86
2018-05-08 12:00:00 18.4 12 Este 14 Este 0 -- -- 84
2018-05-08 11:00:00 19.5 7 Este 9 Este 0 -- -- 81
2018-05-08 10:00:00 19.2 5 Nordeste 8 Nordeste 0 -- -- 82
2018-05-08 09:00:00 16.8 4 Sudoeste 14 Sur 0 -- -- 87
2018-05-08 08:00:00 16.7 14 Sur 26 Sudeste 0 -- -- 89
2018-05-08 07:00:00 16.9 22 Sudeste 26 Sudeste 0 -- -- 88
2018-05-08 06:00:00 15.5 6 Sur 15 Noroeste 0 -- -- 84
2018-05-08 05:00:00 15.3 8 Noroeste 21 Noroeste 0 -- -- 84
2018-05-08 04:00:00 15.7 13 Oeste 21 Oeste 0 -- -- 90
2018-05-08 03:00:00 15.7 11 Noroeste 15 Noroeste 0 -- -- 91
2018-05-08 02:00:00 15.6 10 Oeste 23 Sur 0 -- -- 88
2018-05-08 01:00:00 17.2 22 Sudeste 26 Sur 0 -- -- 92
2018-05-08 00:00:00 17.5 19 Sudeste 22 Sudeste 0 -- -- 89
2018-05-07 23:00:00 18.3 5 Este 7 Sudeste 0 -- -- 83
2018-05-07 22:00:00 18.3 2 Norte 5 Norte 0 -- -- 76
2018-05-07 21:00:00 18.6 3 Norte 11 Noroeste 0 -- -- 78
2018-05-07 20:00:00 18.5 3 Nordeste 12 Sur 0 -- -- 79
2018-05-07 19:00:00 18.1 9 Sudeste 21 Sudeste 0 -- -- 83
2018-05-07 18:00:00 19 17 Sudeste 20 Este 0 -- -- 80
2018-05-07 17:00:00 18.7 15 Este 21 Este 0 -- -- 81
2018-05-07 16:00:00 18.8 15 Este 18 Este 0 -- -- 78
2018-05-07 15:00:00 20.5 15 Nordeste 22 Este 0 -- -- 73
2018-05-07 14:00:00 19.8 8 Este 10 Este 0 -- -- 72
2018-05-07 13:00:00 19.4 9 Este 11 Este 0 -- -- 71
2018-05-07 12:00:00 19.6 6 Este 10 Nordeste 0 -- -- 70
2018-05-07 11:00:00 20 5 Nordeste 8 Este 0 -- -- 65
2018-05-07 10:00:00 19.8 2 Nordeste 9 Noroeste 0 -- -- 66
2018-05-07 09:00:00 16.5 3 Oeste 15 Noroeste 0 -- -- 73
2018-05-07 08:00:00 15.4 10 Noroeste 23 Noroeste 0 -- -- 78
2018-05-07 07:00:00 15.4 12 Noroeste 20 Noroeste 0 -- -- 78
2018-05-07 06:00:00 15.3 12 Noroeste 18 Norte 0 -- -- 80
2018-05-07 05:00:00 15.4 12 Noroeste 17 Noroeste 0 -- -- 80
2018-05-07 04:00:00 15.3 12 Noroeste 15 Oeste 0 -- -- 83
2018-05-07 03:00:00 15 7 Noroeste 15 Oeste 0 -- -- 87
2018-05-07 02:00:00 15.4 10 Noroeste 13 Noroeste 0 -- -- 87
2018-05-07 01:00:00 16.9 0 Calma 11 Nordeste 0 -- -- 88
2018-05-07 00:00:00 17.4 8 Norte 16 Norte 0 -- -- 89
2018-05-06 23:00:00 17.5 10 Norte 18 Norte 0 -- -- 86
2018-05-06 22:00:00 17.4 10 Norte 18 Norte 0 -- -- 85
2018-05-06 21:00:00 17.9 9 Norte 15 Nordeste 0 -- -- 83
2018-05-06 20:00:00 19.3 10 Nordeste 14 Nordeste 0 -- -- 77
2018-05-06 19:00:00 20.4 9 Nordeste 14 Nordeste 0 -- -- 74
2018-05-06 18:00:00 20.3 8 Nordeste 13 Nordeste 0 -- -- 72
2018-05-06 17:00:00 18.9 8 Este 16 Este 0 -- -- 76
2018-05-06 16:00:00 19.2 10 Sudeste 20 Este 0 -- -- 76
2018-05-06 15:00:00 18.7 11 Este 14 Este 0 -- -- 80
2018-05-06 14:00:00 18.9 12 Este 17 Este 0 -- -- 80
2018-05-06 13:00:00 18.7 11 Este 17 Este 0 -- -- 76
2018-05-06 12:00:00 19.9 12 Nordeste 15 Nordeste 0 -- -- 69
2018-05-06 11:00:00 19.6 8 Este 11 Nordeste 0 -- -- 70
2018-05-06 10:00:00 19.8 3 Nordeste 9 Noroeste 0 -- -- 64
2018-05-06 09:00:00 16.8 8 Oeste 13 Oeste 0 -- -- 64
2018-05-06 08:00:00 15.3 10 Noroeste 13 Oeste 0 -- -- 67
2018-05-06 07:00:00 15 8 Oeste 13 Noroeste 0 -- -- 70
2018-05-06 06:00:00 15 9 Oeste 15 Oeste 0 -- -- 68
2018-05-06 05:00:00 15.7 9 Oeste 14 Sudoeste 0 -- -- 69
2018-05-06 04:00:00 15.8 6 Oeste 12 Oeste 0 -- -- 71
2018-05-06 03:00:00 15.9 7 Oeste 10 Oeste 0 -- -- 72
2018-05-06 02:00:00 16.1 9 Oeste 15 Oeste 0 -- -- 75
2018-05-06 01:00:00 16.7 10 Oeste 16 Oeste 0 -- -- 76
2018-05-06 00:00:00 16.3 6 Oeste 15 Oeste 0 -- -- 82
2018-05-05 23:00:00 16.5 4 Oeste 5 Oeste 0 -- -- 86
2018-05-05 22:00:00 16.6 3 Norte 8 Nordeste 0 -- -- 87
2018-05-05 21:00:00 17.3 4 Nordeste 14 Nordeste 0 -- -- 84
2018-05-05 20:00:00 17.5 11 Este 21 Sudeste 0 -- -- 81
2018-05-05 19:00:00 17.4 19 Sudeste 24 Sudeste 0 -- -- 81
2018-05-05 18:00:00 17.3 22 Sudeste 28 Sudeste 0 -- -- 80
2018-05-05 17:00:00 17.4 24 Sudeste 28 Sudeste 0 -- -- 79
2018-05-05 16:00:00 17.2 26 Sudeste 29 Sudeste 0 -- -- 81
2018-05-05 15:00:00 17.1 25 Sudeste 30 Sudeste 0 -- -- 84
2018-05-05 14:00:00 16.9 26 Sudeste 31 Sudeste 0 -- -- 86
2018-05-05 13:00:00 16.7 28 Sudeste 32 Sudeste 0 -- -- 85
2018-05-05 12:00:00 17 26 Sudeste 29 Sudeste 0 -- -- 83
2018-05-05 11:00:00 19.5 10 Este 15 Oeste 0 -- -- 68
2018-05-05 10:00:00 18.3 8 Oeste 18 Oeste 0 -- -- 72
2018-05-05 09:00:00 16.5 9 Oeste 14 Oeste 0 -- -- 87
2018-05-05 08:00:00 16.1 10 Oeste 14 Oeste 0 -- -- 88
2018-05-05 07:00:00 15.6 8 Noroeste 10 Oeste 0 -- -- 88
2018-05-05 06:00:00 15.6 4 Noroeste 9 Oeste 0 -- -- 88
2018-05-05 05:00:00 16 2 Noroeste 7 Sudoeste 0 -- -- 88
2018-05-05 04:00:00 15.9 5 Sudoeste 8 Sudoeste 0 -- -- 87
2018-05-05 03:00:00 16 5 Noroeste 6 Oeste 0 -- -- 87
2018-05-05 02:00:00 16.2 2 Noroeste 8 Oeste 0 -- -- 86
2018-05-05 01:00:00 16 6 Noroeste 8 Oeste 0 -- -- 87
2018-05-05 00:00:00 16.5 6 Norte 10 Norte 0 -- -- 86
2018-05-04 23:00:00 16.3 3 Norte 6 Norte 0 -- -- 87
2018-05-04 22:00:00 16.4 3 Norte 9 Nordeste 0 -- -- 90
2018-05-04 21:00:00 16.6 6 Nordeste 14 Nordeste 0 -- -- 89
2018-05-04 20:00:00 17 12 Nordeste 19 Sudeste 0 -- -- 88
2018-05-04 19:00:00 17.2 18 Sudeste 23 Sudeste 0 -- -- 87
2018-05-04 18:00:00 17 20 Sudeste 24 Sudeste 0 -- -- 86
2018-05-04 17:00:00 17.8 18 Este 25 Este 0 -- -- 81
2018-05-04 16:00:00 17.5 20 Este 23 Este 0 -- -- 81
2018-05-04 15:00:00 18.2 17 Este 20 Este 0 -- -- 79
2018-05-04 14:00:00 17.7 11 Sudeste 16 Este 0 -- -- 78
2018-05-04 13:00:00 18.4 15 Este 21 Este 0 -- -- 75
2018-05-04 12:00:00 20 4 Sudeste 6 Sudeste 0 -- -- 68
2018-05-04 11:00:00 18.6 0 Calma 6 Este 0 -- -- 70
2018-05-04 10:00:00 17.5 3 Nordeste 10 Norte 0 -- -- 73
2018-05-04 09:00:00 16.6 8 Oeste 13 Oeste 0 -- -- 75
2018-05-04 08:00:00 16.1 5 Noroeste 9 Noroeste 0 -- -- 82
2018-05-04 07:00:00 16 3 Norte 6 Sudeste 0 -- -- 83
2018-05-04 06:00:00 16.9 4 Sur 15 Sudoeste 0 -- -- 77
2018-05-04 05:00:00 17 7 Oeste 20 Sudoeste 0 -- -- 68
2018-05-04 04:00:00 18.4 3 Oeste 24 Noroeste 0.2 -- -- 59
2018-05-04 03:00:00 18.8 14 Oeste 21 Oeste 0 -- -- 57
2018-05-04 02:00:00 19.2 11 Oeste 19 Noroeste 0 -- -- 55
2018-05-04 01:00:00 18.4 14 Sudoeste 21 Sudoeste 0 -- -- 61
2018-05-04 00:00:00 18.8 17 Sudoeste 23 Sudoeste 0 -- -- 61
2018-05-03 23:00:00 19 6 Noroeste 27 Sudoeste 0 -- -- 62
2018-05-03 22:00:00 20.1 20 Sudoeste 31 Oeste 0 -- -- 53
2018-05-03 21:00:00 21.4 20 Sudoeste 28 Sur 0 -- -- 42
2018-05-03 20:00:00 19.9 19 Sur 40 Sur 0 -- -- 51
2018-05-03 19:00:00 19.5 33 Sur 47 Sur 0 -- -- 53
2018-05-03 18:00:00 20 34 Sur 45 Sur 0 -- -- 52
2018-05-03 17:00:00 20.8 41 Sur 49 Sur 0 -- -- 45
2018-05-03 16:00:00 19.8 40 Sur 50 Sur 0 -- -- 54
2018-05-03 15:00:00 18.8 39 Sudeste 42 Sur 0 -- -- 59
2018-05-03 14:00:00 16.9 30 Sur 36 Sur 0 -- -- 76
2018-05-03 13:00:00 17.2 30 Sur 33 Sur 0 -- -- 72
2018-05-03 12:00:00 17.9 18 Sur 23 Sur 0 -- -- 62
2018-05-03 11:00:00 17.1 13 Sur 19 Sudeste 0 -- -- 63
2018-05-03 10:00:00 20.3 9 Sudoeste 21 Sudoeste 0 -- -- 42
2018-05-03 09:00:00 17.8 15 Oeste 23 Oeste 0 -- -- 44
2018-05-03 08:00:00 16.5 14 Oeste 23 Oeste 0 -- -- 50
2018-05-03 07:00:00 16.8 16 Oeste 24 Oeste 0 -- -- 47
2018-05-03 06:00:00 17.2 14 Oeste 21 Oeste 0 -- -- 45
2018-05-03 05:00:00 17.9 13 Oeste 23 Oeste 0 -- -- 45
2018-05-03 04:00:00 18.4 13 Oeste 20 Oeste 0 -- -- 44
2018-05-03 03:00:00 18.6 14 Oeste 21 Oeste 0 -- -- 43
2018-05-03 02:00:00 18.5 13 Oeste 19 Oeste 0 -- -- 42
2018-05-03 01:00:00 16.3 9 Oeste 14 Oeste 0 -- -- 49
2018-05-03 00:00:00 17.4 10 Oeste 14 Oeste 0 -- -- 42
2018-05-02 23:00:00 17.3 13 Noroeste 28 Sudoeste 0 -- -- 43
2018-05-02 22:00:00 18.5 19 Oeste 30 Oeste 0 -- -- 39
2018-05-02 21:00:00 18.6 8 Sudoeste 44 Sudeste 0 -- -- 43
2018-05-02 20:00:00 18.3 28 Sur 53 Sur 0 -- -- 41
2018-05-02 19:00:00 18.2 38 Sur 54 Sur 0 -- -- 46
2018-05-02 18:00:00 16.9 45 Sur 61 Sur 0 -- -- 56
2018-05-02 17:00:00 16.6 48 Sur 60 Sur 0 -- -- 61
2018-05-02 16:00:00 16.4 45 Sur 52 Sur 0 -- -- 62
2018-05-02 15:00:00 16 35 Sur 40 Sudeste 0 -- -- 74
2018-05-02 14:00:00 15.6 34 Sudeste 40 Sur 0 -- -- 75
2018-05-02 13:00:00 15.4 33 Sur 37 Sur 0 -- -- 70
2018-05-02 12:00:00 15.3 30 Sur 32 Sur 0 -- -- 67
2018-05-02 11:00:00 15.2 17 Sur 19 Sur 0 -- -- 68
2018-05-02 10:00:00 16.5 6 Oeste 13 Oeste 0 -- -- 41
2018-05-02 09:00:00 13.7 6 Oeste 20 Oeste 0 -- -- 57
2018-05-02 08:00:00 11.2 13 Oeste 21 Oeste 0 -- -- 63
2018-05-02 07:00:00 10.4 14 Oeste 18 Oeste 0 -- -- 68
2018-05-02 06:00:00 10.9 13 Oeste 25 Oeste 0 -- -- 66
2018-05-02 05:00:00 10.8 18 Oeste 23 Oeste 0 -- -- 69
2018-05-02 04:00:00 11.5 8 Oeste 28 Oeste 0 -- -- 68
2018-05-02 03:00:00 11.5 22 Oeste 28 Oeste 0 -- -- 69
2018-05-02 02:00:00 11.8 12 Oeste 21 Sudoeste 0 -- -- 69
2018-05-02 01:00:00 12.2 14 Oeste 21 Oeste 0 -- -- 67
2018-05-02 00:00:00 12.1 9 Oeste 15 Oeste 0 -- -- 69
2018-05-01 23:00:00 12.6 10 Oeste 19 Oeste 0 -- -- 68
2018-05-01 22:00:00 13.1 9 Oeste 24 Oeste 0 -- -- 65
2018-05-01 21:00:00 13.8 18 Oeste 29 Oeste 0 -- -- 61
2018-05-01 20:00:00 13.8 19 Oeste 35 Oeste 0 -- -- 61
2018-05-01 19:00:00 13.7 28 Oeste 50 Sudoeste 0 -- -- 59
2018-05-01 18:00:00 14.2 37 Sudoeste 55 Sudoeste 0 -- -- 62
2018-05-01 17:00:00 14.6 22 Oeste 51 Sur 0 -- -- 56
2018-05-01 16:00:00 14 43 Sur 58 Oeste 0 -- -- 60
2018-05-01 15:00:00 15.5 28 Sudoeste -- -- 0 -- -- 60
2018-05-01 14:00:00 -- 31 Sur 35 Sur 0 -- -- --
2018-05-01 13:00:00 15.6 26 Sudeste 32 Sudeste 0 -- -- 66
2018-05-01 12:00:00 16.3 17 Sudeste 20 Sudeste 0 -- -- 55
2018-05-01 11:00:00 16.4 15 Este 18 Nordeste 0 -- -- 52
2018-05-01 10:00:00 16 13 Nordeste 18 Nordeste 0 -- -- 55
2018-05-01 09:00:00 15.2 9 Noroeste 19 Noroeste 0 -- -- 52
2018-05-01 08:00:00 14 8 Norte 18 Noroeste 0 -- -- 55
2018-05-01 07:00:00 13.6 5 Noroeste 12 Norte 0 -- -- 55
2018-05-01 06:00:00 14 6 Noroeste 13 Norte 0 -- -- 52
2018-05-01 05:00:00 14.6 4 Nordeste 9 Norte 0 -- -- 65
2018-05-01 04:00:00 14.8 9 Norte 18 Nordeste 0 -- -- 67
2018-05-01 03:00:00 15.1 15 Norte 23 Norte 0 -- -- 75
2018-05-01 02:00:00 15.4 16 Norte 25 Norte 0 -- -- 72
2018-05-01 01:00:00 15.4 15 Norte 23 Norte 0 -- -- 63
2018-05-01 00:00:00 16.3 10 Noroeste 28 Oeste 0 -- -- 55
2018-04-30 23:00:00 15.9 9 Norte 36 Norte 0 -- -- 60
2018-04-30 22:00:00 15.6 29 Norte 51 Norte 0 -- -- 61
2018-04-30 21:00:00 18 32 Noroeste 60 Norte 0 -- -- 51
2018-04-30 20:00:00 18.8 18 Sudoeste 32 Sur 0 -- -- 45
2018-04-30 19:00:00 17.5 27 Sur 40 Sur 0 -- -- 56
2018-04-30 18:00:00 17.6 36 Sur 48 Sur 0 -- -- 56
2018-04-30 17:00:00 16.4 41 Sudeste 47 Sudeste 0 -- -- 69
2018-04-30 16:00:00 16.6 35 Sudeste 41 Sur 0 -- -- 66
2018-04-30 15:00:00 16.4 31 Sudeste 36 Sur 0 -- -- 68
2018-04-30 14:00:00 17 21 Sudeste 24 Sudeste 0 -- -- 67
2018-04-30 13:00:00 15.9 17 Sudeste 20 Sudeste 0 -- -- 70
2018-04-30 12:00:00 16.1 12 Sudeste 15 Sudeste 0 -- -- 64
2018-04-30 11:00:00 16.9 6 Sudeste 11 Nordeste 0 -- -- 56
2018-04-30 10:00:00 17.2 0 Calma 7 Noroeste 0 -- -- 49
2018-04-30 09:00:00 14.1 4 Oeste 16 Oeste 0 -- -- 56
2018-04-30 08:00:00 12.9 9 Oeste 13 Oeste 0 -- -- 58
2018-04-30 07:00:00 13 7 Noroeste 11 Noroeste 0 -- -- 59
2018-04-30 06:00:00 12.6 5 Oeste 14 Oeste 0 -- -- 62
2018-04-30 05:00:00 13.9 12 Oeste 15 Oeste 0 -- -- 55
2018-04-30 04:00:00 14 10 Oeste 15 Oeste 0 -- -- 61
2018-04-30 03:00:00 14.4 11 Oeste 16 Oeste 0 -- -- 61
2018-04-30 02:00:00 14.3 13 Oeste 18 Sudoeste 0 -- -- 67
2018-04-30 01:00:00 15.5 9 Oeste 17 Sudoeste 0 -- -- 61
2018-04-30 00:00:00 15.8 12 Sudoeste 17 Sudoeste 0 -- -- 64
2018-04-29 23:00:00 16.1 13 Sur 23 Sur 0 -- -- 74
2018-04-29 22:00:00 17.8 4 Noroeste 18 Oeste 0 -- -- 50
2018-04-29 21:00:00 18.8 9 Oeste 21 Sudoeste 0 -- -- 46
2018-04-29 20:00:00 20.5 14 Sudoeste 26 Sudoeste 0 -- -- 40
2018-04-29 19:00:00 20.9 17 Sudoeste 30 Sudoeste 0 -- -- 40
2018-04-29 18:00:00 21.4 15 Sudoeste 35 Oeste 0 -- -- 36
2018-04-29 17:00:00 21.4 3 Norte 29 Sudoeste 0 -- -- 33
2018-04-29 16:00:00 19.7 23 Sudoeste 47 Sudeste 0 -- -- 42
2018-04-29 15:00:00 19.7 20 Sudoeste 48 Sur 0 -- -- 37
2018-04-29 14:00:00 19.4 9 Nordeste 24 Sudeste 0 -- -- 40
2018-04-29 13:00:00 18.9 9 Este 22 Este 0 -- -- 43
2018-04-29 12:00:00 17.7 10 Este 26 Este 0 -- -- 50
2018-04-29 11:00:00 16.9 19 Este 25 Sudeste 0 -- -- 57
2018-04-29 10:00:00 17 10 Noroeste 20 Noroeste 0 -- -- 45
2018-04-29 09:00:00 16.1 10 Noroeste 17 Noroeste 0 -- -- 51
2018-04-29 08:00:00 15.7 7 Sudoeste 25 Sudoeste 0 -- -- 59
2018-04-29 07:00:00 14.9 14 Noroeste 22 Noroeste 0 -- -- 50
2018-04-29 06:00:00 16.4 8 Oeste 32 Oeste 0 -- -- 43
2018-04-29 05:00:00 17 18 Sudoeste 27 Sudoeste 0 -- -- 41
2018-04-29 04:00:00 18.2 15 Oeste 33 Sudoeste 0 -- -- 34
2018-04-29 03:00:00 18 13 Este 24 Este 0 -- -- 51
2018-04-29 02:00:00 18.1 11 Sur 44 Sudeste 0 -- -- 50
2018-04-29 01:00:00 17.2 29 Sudeste 53 Sudeste 0 -- -- 64
2018-04-29 00:00:00 21.2 20 Oeste 41 Sudoeste 0 -- -- 40
2018-04-28 23:00:00 22.2 26 Sudoeste 47 Sudoeste 0 -- -- 36
2018-04-28 22:00:00 23.5 36 Sudoeste 58 Sudoeste 0 -- -- 22
2018-04-28 21:00:00 24.5 26 Sudoeste 51 Sudoeste 0 -- -- 22
2018-04-28 20:00:00 25.3 40 Sudoeste 62 Sur 0 -- -- 20
2018-04-28 19:00:00 25.5 30 Sur 63 Sudoeste 0 -- -- 27
2018-04-28 18:00:00 27.1 41 Sudoeste 58 Sudoeste 0 -- -- 15
2018-04-28 17:00:00 26.6 44 Sudoeste 59 Sudoeste 0 -- -- 20
2018-04-28 16:00:00 25.4 37 Sur 55 Sudeste 0 -- -- 43
2018-04-28 15:00:00 21.7 32 Sur 53 Sur 0 -- -- 53
2018-04-28 14:00:00 19.5 19 Sudeste 42 Sudeste 0 -- -- 75
2018-04-28 13:00:00 17.6 16 Este 26 Sudeste 0 -- -- 92
2018-04-28 12:00:00 17.4 19 Sudeste 23 Sudeste 0 -- -- 92
2018-04-28 11:00:00 17.6 11 Sudeste 13 Sur 0 -- -- 90
2018-04-28 10:00:00 19.5 3 Nordeste 5 Este 0 -- -- 80
2018-04-28 09:00:00 19.1 0 Calma 7 Nordeste 0 -- -- 83
2018-04-28 08:00:00 17 3 Norte 8 Noroeste 0 -- -- 82
2018-04-28 07:00:00 17.2 4 Noroeste 9 Oeste 0 -- -- 76
2018-04-28 06:00:00 16.9 0 Calma 8 Oeste 0 -- -- 79
2018-04-28 05:00:00 17.4 8 Noroeste 17 Noroeste 0 -- -- 78
2018-04-28 04:00:00 17.1 7 Oeste 14 Oeste 0 -- -- 86
2018-04-28 03:00:00 17 4 Sudoeste 12 Sur 0 -- -- 92
2018-04-28 02:00:00 17.6 6 Sudeste 10 Norte 0 -- -- 89
2018-04-28 01:00:00 18.1 6 Norte 20 Nordeste 0 -- -- 87
2018-04-28 00:00:00 17.8 13 Norte 21 Nordeste 0 -- -- 89
2018-04-27 23:00:00 19.3 8 Nordeste 14 Noroeste 0 -- -- 80
2018-04-27 22:00:00 19 2 Noroeste 14 Oeste 0 -- -- 79
2018-04-27 21:00:00 19.5 5 Noroeste 23 Sudoeste 0 -- -- 76
2018-04-27 20:00:00 20.5 6 Nordeste 24 Sudeste 0 -- -- 71
2018-04-27 19:00:00 20.9 18 Sur 36 Sur 0 -- -- 70
2018-04-27 18:00:00 21.2 30 Sur 36 Sudeste 0 -- -- 70
2018-04-27 17:00:00 20.9 30 Sudeste 33 Sudeste 0 -- -- 73
2018-04-27 16:00:00 20.3 22 Sur 37 Sur 0 -- -- 77
2018-04-27 15:00:00 19.6 32 Sudeste 37 Sudeste 0 -- -- 79
2018-04-27 14:00:00 19.3 33 Sur 37 Sur 0 -- -- 81
2018-04-27 13:00:00 19.8 4 Este 12 Nordeste 0 -- -- 82
2018-04-27 12:00:00 18.9 9 Nordeste 12 Nordeste 0 -- -- 86
2018-04-27 11:00:00 17.8 6 Este 8 Nordeste 0 -- -- 87
2018-04-27 10:00:00 17.8 5 Nordeste 9 Norte 0 -- -- 88
2018-04-27 09:00:00 16.8 4 Nordeste 6 Norte 0 -- -- 89
2018-04-27 08:00:00 15.1 3 Sudoeste 9 Sur 0 -- -- 93
2018-04-27 07:00:00 14.7 2 Oeste 10 Oeste 0 -- -- 94
2018-04-27 06:00:00 14.6 3 Noroeste 10 Oeste 0 -- -- 92
2018-04-27 05:00:00 14.9 2 Oeste 7 Oeste 0 -- -- 91
2018-04-27 04:00:00 15.6 4 Oeste 9 Sudoeste 0 -- -- 90
2018-04-27 03:00:00 15.8 4 Sur 6 Sur 0 -- -- 89
2018-04-27 02:00:00 15.8 0 Calma 17 Oeste 0 -- -- 89
2018-04-27 01:00:00 15.7 15 Oeste 19 Oeste 0 -- -- 88
2018-04-27 00:00:00 16.2 3 Oeste 6 Sudoeste 0 -- -- 87
2018-04-26 23:00:00 16.3 3 Oeste 9 Oeste 0 -- -- 85
2018-04-26 22:00:00 16.5 2 Sur 7 Sur 0 -- -- 86
2018-04-26 21:00:00 16.5 4 Sur 6 Sur 0 -- -- 86
2018-04-26 20:00:00 17 8 Sudeste 9 Sudeste 0 -- -- 87
2018-04-26 19:00:00 18.5 5 Este 14 Nordeste 0 -- -- 84
2018-04-26 18:00:00 19 4 Nordeste 8 Nordeste 0 -- -- 80
2018-04-26 17:00:00 18.8 2 Nordeste 15 Nordeste 0 -- -- 83
2018-04-26 16:00:00 17.9 8 Nordeste 17 Nordeste 0.2 -- -- 86
2018-04-26 15:00:00 17.6 8 Nordeste 14 Este 0 -- -- 87
2018-04-26 14:00:00 17.1 13 Este 23 Este 0 -- -- 87
2018-04-26 13:00:00 18.3 14 Nordeste 21 Noroeste 0 -- -- 79
2018-04-26 12:00:00 17.8 13 Noroeste 20 Noroeste 0 -- -- 81
2018-04-26 11:00:00 16.9 15 Noroeste 23 Noroeste 0.6 -- -- 88
2018-04-26 10:00:00 16.9 5 Noroeste 10 Noroeste 0.4 -- -- 91
2018-04-26 09:00:00 16.8 8 Noroeste 16 Norte 0.8 -- -- 89
2018-04-26 08:00:00 17.4 10 Norte 21 Norte 0.6 -- -- 85
2018-04-26 07:00:00 17.7 0 Calma 4 Nordeste 0.2 -- -- 83
2018-04-26 06:00:00 18.1 4 Noroeste 12 Noroeste 0 -- -- 82
2018-04-26 05:00:00 18.2 4 Noroeste 18 Noroeste 0 -- -- 82
2018-04-26 04:00:00 18.4 11 Oeste 17 Noroeste 0 -- -- 83
2018-04-26 03:00:00 18.3 10 Noroeste 13 Oeste 0 -- -- 80
2018-04-26 02:00:00 18.3 7 Noroeste 15 Noroeste 0 -- -- 81
2018-04-26 01:00:00 18.2 9 Noroeste 13 Noroeste 0 -- -- 85
2018-04-26 00:00:00 17.9 4 Noroeste 9 Oeste 0 -- -- 85
2018-04-25 23:00:00 18.1 5 Oeste 11 Oeste 0 -- -- 82
2018-04-25 22:00:00 17.8 4 Oeste 10 Oeste 0 -- -- 84
2018-04-25 21:00:00 17.4 0 Calma 23 Este 0 -- -- 86
2018-04-25 20:00:00 18.2 17 Este 22 Este 0 -- -- 80
2018-04-25 19:00:00 19.3 2 Sudeste 7 Este 0 -- -- 78
2018-04-25 18:00:00 19 4 Nordeste 14 Oeste 0 -- -- 79
2018-04-25 17:00:00 18.5 11 Oeste 25 Noroeste 0 -- -- 80
2018-04-25 16:00:00 18.1 15 Noroeste 31 Noroeste 0 -- -- 79
2018-04-25 15:00:00 16.7 17 Noroeste 25 Noroeste 0.2 -- -- 92
2018-04-25 14:00:00 15.7 15 Norte 24 Norte 2.8 -- -- 93
2018-04-25 13:00:00 16.1 11 Oeste 23 Noroeste 1.4 -- -- 94
2018-04-25 12:00:00 16 17 Norte 30 Norte 1.6 -- -- 94
2018-04-25 11:00:00 15.9 9 Norte 17 Noroeste 1.6 -- -- 91
2018-04-25 10:00:00 16 11 Oeste 18 Oeste 1.2 -- -- 91
2018-04-25 09:00:00 15.5 13 Sudoeste 21 Oeste 1 -- -- 93
2018-04-25 08:00:00 15.9 10 Noroeste 20 Noroeste 3.6 -- -- 90
2018-04-25 07:00:00 16.8 18 Este 46 Este 2.6 -- -- 82
2018-04-25 06:00:00 18.1 13 Oeste 22 Noroeste 1.6 -- -- 69
2018-04-25 05:00:00 19.8 10 Norte 19 Noroeste 0 -- -- 61
2018-04-25 04:00:00 19.5 6 Este 21 Noroeste 0 -- -- 56
2018-04-25 03:00:00 20.1 12 Noroeste 31 Norte 0 -- -- 51
2018-04-25 02:00:00 18.9 14 Norte 35 Nordeste 0 -- -- 69
2018-04-25 01:00:00 18.5 24 Nordeste 36 Este 0 -- -- 71
2018-04-25 00:00:00 19.4 5 Sudeste 21 Nordeste 0 -- -- 64
2018-04-24 23:00:00 19.4 18 Nordeste 29 Nordeste 0 -- -- 64
2018-04-24 22:00:00 18.8 4 Sudoeste 22 Nordeste 0 -- -- 74
2018-04-24 21:00:00 18.6 15 Nordeste 32 Nordeste 0 -- -- 76
2018-04-24 20:00:00 18.6 28 Nordeste 43 Nordeste 0 -- -- 78
2018-04-24 19:00:00 18.6 12 Norte 43 Nordeste 0 -- -- 79
2018-04-24 18:00:00 18.6 39 Nordeste 49 Nordeste 0 -- -- 78
2018-04-24 17:00:00 18.7 38 Nordeste 48 Nordeste 0 -- -- 76
2018-04-24 16:00:00 19.1 36 Nordeste 43 Nordeste 0 -- -- 74
2018-04-24 15:00:00 19.4 36 Nordeste 45 Nordeste 0 -- -- 71
2018-04-24 14:00:00 19.6 26 Nordeste 36 Nordeste 0 -- -- 70
2018-04-24 13:00:00 19.5 28 Nordeste 40 Nordeste 0 -- -- 70
2018-04-24 12:00:00 19.6 29 Nordeste 36 Nordeste 0 -- -- 68
2018-04-24 11:00:00 19.9 12 Nordeste 33 Nordeste 0 -- -- 67
2018-04-24 10:00:00 19.5 18 Nordeste 32 Nordeste 0 -- -- 65
2018-04-24 09:00:00 19.2 10 Norte 20 Nordeste 0 -- -- 63
2018-04-24 08:00:00 19.2 5 Nordeste 16 Este 0 -- -- 56
2018-04-24 07:00:00 19.8 8 Nordeste 23 Norte 0 -- -- 49
2018-04-24 06:00:00 21.1 15 Norte 30 Norte 0 -- -- 36
2018-04-24 05:00:00 21.5 19 Norte 33 Noroeste 0 -- -- 33
2018-04-24 04:00:00 21.8 19 Norte 44 Norte 0 -- -- 32
2018-04-24 03:00:00 21.9 30 Norte 54 Norte 0 -- -- 36
2018-04-24 02:00:00 21.9 21 Norte 43 Norte 0 -- -- 38
2018-04-24 01:00:00 22.4 23 Norte 47 Norte 0 -- -- 36
2018-04-24 00:00:00 20.9 24 Norte 41 Nordeste 0 -- -- 50